createdAt,value
2023-04-13T00:01:46.361Z,7.27
2023-04-13T00:04:23.439Z,7.29
2023-04-13T00:06:58.696Z,7.31
2023-04-13T00:09:32.421Z,7.36
2023-04-13T00:12:09.873Z,7.40
2023-04-13T00:14:39.917Z,7.38
2023-04-13T00:17:11.657Z,7.28
2023-04-13T00:19:48.245Z,7.29
2023-04-13T00:22:18.399Z,7.33
2023-04-13T00:24:57.700Z,7.30
2023-04-13T00:27:42.957Z,7.25
2023-04-13T00:30:18.192Z,7.23
2023-04-13T00:32:51.849Z,7.24
2023-04-13T00:35:25.380Z,7.26
2023-04-13T00:37:56.306Z,7.23
2023-04-13T00:40:30.688Z,7.18
2023-04-13T00:43:07.243Z,7.12
2023-04-13T00:45:47.652Z,7.06
2023-04-13T00:48:20.906Z,7.01
2023-04-13T00:50:55.699Z,7.01
2023-04-13T00:53:30.989Z,7.03
2023-04-13T00:56:08.014Z,7.00
2023-04-13T00:58:42.726Z,6.96
2023-04-13T01:01:12.733Z,6.94
2023-04-13T01:03:47.219Z,6.94
2023-04-13T01:06:45.432Z,6.96
2023-04-13T01:09:29.084Z,6.95
2023-04-13T01:12:42.034Z,6.94
2023-04-13T01:15:16.748Z,6.87
2023-04-13T01:18:07.390Z,6.87
2023-04-13T01:20:40.719Z,6.87
2023-04-13T01:23:25.912Z,6.87
2023-04-13T01:26:00.466Z,6.86
2023-04-13T01:28:31.312Z,6.86
2023-04-13T01:31:11.927Z,6.86
2023-04-13T01:33:47.051Z,6.84
2023-04-13T01:36:17.016Z,6.84
2023-04-13T01:38:47.591Z,6.85
2023-04-13T01:41:18.592Z,6.85
2023-04-13T01:43:48.098Z,6.87
2023-04-13T01:46:25.121Z,6.89
2023-04-13T01:49:21.141Z,6.90
2023-04-13T01:52:21.388Z,6.87
2023-04-13T01:54:53.201Z,6.81
2023-04-13T01:57:24.652Z,6.80
2023-04-13T01:59:55.272Z,6.83
2023-04-13T02:02:24.898Z,6.87
2023-04-13T02:04:54.391Z,6.93
2023-04-13T02:07:23.880Z,7.00
2023-04-13T02:09:54.360Z,7.01
2023-04-13T02:12:24.006Z,6.99
2023-04-13T02:14:53.443Z,6.98
2023-04-13T02:17:25.684Z,6.99
2023-04-13T02:19:56.569Z,7.02
2023-04-13T02:22:26.168Z,7.01
2023-04-13T02:24:56.831Z,7.05
2023-04-13T02:27:26.848Z,7.10
2023-04-13T02:29:57.439Z,7.15
2023-04-13T02:32:26.959Z,7.15
2023-04-13T02:34:56.166Z,7.16
2023-04-13T02:37:26.077Z,7.17
2023-04-13T02:39:55.949Z,7.18
2023-04-13T02:42:25.329Z,7.20
2023-04-13T02:44:55.285Z,7.20
2023-04-13T02:47:25.111Z,7.20
2023-04-13T02:49:54.984Z,7.20
2023-04-13T02:52:41.414Z,7.22
2023-04-13T02:55:11.352Z,7.23
2023-04-13T02:57:55.122Z,7.25
2023-04-13T03:00:25.741Z,7.22
2023-04-13T03:02:59.610Z,7.22
2023-04-13T03:05:33.238Z,7.25
2023-04-13T03:08:05.477Z,7.22
2023-04-13T03:10:37.634Z,7.12
2023-04-13T03:13:07.733Z,7.04
2023-04-13T03:15:40.872Z,6.88
2023-04-13T03:18:13.442Z,6.81
2023-04-13T03:20:43.945Z,6.80
2023-04-13T03:23:13.621Z,6.81
2023-04-13T03:25:43.321Z,6.80
2023-04-13T03:28:14.753Z,6.78
2023-04-13T03:30:49.430Z,6.75
2023-04-13T03:33:18.911Z,6.72
2023-04-13T03:35:48.405Z,6.70
2023-04-13T03:38:24.554Z,6.69
2023-04-13T03:40:54.437Z,6.71
2023-04-13T03:43:23.623Z,6.75
2023-04-13T03:46:01.114Z,6.83
2023-04-13T03:48:31.078Z,6.90
2023-04-13T03:51:01.146Z,6.96
2023-04-13T03:53:40.108Z,7.00
2023-04-13T03:56:10.139Z,7.02
2023-04-13T03:58:41.954Z,7.01
2023-04-13T04:01:15.107Z,6.98
2023-04-13T04:03:48.287Z,6.95
2023-04-13T04:06:17.773Z,6.91
2023-04-13T04:08:55.884Z,6.93
2023-04-13T04:11:38.869Z,6.97
2023-04-13T04:14:10.799Z,7.05
2023-04-13T04:16:40.932Z,7.11
2023-04-13T04:19:13.175Z,7.13
2023-04-13T04:21:45.041Z,7.13
2023-04-13T04:24:32.787Z,7.13
2023-04-13T04:27:03.422Z,7.11
2023-04-13T04:29:36.650Z,7.12
2023-04-13T04:32:31.360Z,7.16
2023-04-13T04:35:04.469Z,7.19
2023-04-13T04:37:40.080Z,7.23
2023-04-13T04:40:16.710Z,7.29
2023-04-13T04:42:46.282Z,7.40
2023-04-13T04:45:38.500Z,7.52
2023-04-13T04:48:08.330Z,7.64
2023-04-13T04:50:38.725Z,7.75
2023-04-13T04:53:12.820Z,7.85
2023-04-13T04:55:42.450Z,7.96
2023-04-13T04:58:17.055Z,8.11
2023-04-13T05:00:53.345Z,8.21
2023-04-13T05:03:23.225Z,8.23
2023-04-13T05:05:57.279Z,8.20
2023-04-13T05:08:32.352Z,8.19
2023-04-13T05:11:07.572Z,8.17
2023-04-13T05:13:39.907Z,8.16
2023-04-13T05:16:14.767Z,8.27
2023-04-13T05:18:48.814Z,8.39
2023-04-13T05:21:38.715Z,8.48
2023-04-13T05:24:10.862Z,8.55
2023-04-13T05:26:43.703Z,8.62
2023-04-13T05:29:17.139Z,8.69
2023-04-13T05:31:47.076Z,8.77
2023-04-13T05:34:17.123Z,8.85
2023-04-13T05:36:58.266Z,8.92
2023-04-13T05:39:28.581Z,9.04
2023-04-13T05:41:58.155Z,9.13
2023-04-13T05:44:28.457Z,9.24
2023-04-13T05:46:58.872Z,9.32
2023-04-13T05:49:29.314Z,9.44
2023-04-13T05:51:58.663Z,9.60
2023-04-13T05:54:37.135Z,9.71
2023-04-13T05:57:06.643Z,9.77
2023-04-13T05:59:46.890Z,9.85
2023-04-13T06:02:20.989Z,9.91
2023-04-13T06:04:53.970Z,9.98
2023-04-13T06:07:23.716Z,10.01
2023-04-13T06:09:52.940Z,10.11
2023-04-13T06:12:24.155Z,10.23
2023-04-13T06:14:55.117Z,10.31
2023-04-13T06:17:24.805Z,10.42
2023-04-13T06:19:54.698Z,10.54
2023-04-13T06:22:23.868Z,10.66
2023-04-13T06:24:53.679Z,10.77
2023-04-13T06:27:23.049Z,10.79
2023-04-13T06:29:52.685Z,10.86
2023-04-13T06:32:22.367Z,11.04
2023-04-13T06:34:54.750Z,11.21
2023-04-13T06:37:32.675Z,11.17
2023-04-13T06:40:15.976Z,11.05
2023-04-13T06:43:01.230Z,10.96
2023-04-13T06:45:36.232Z,10.95
2023-04-13T06:48:08.925Z,11.00
2023-04-13T06:50:39.399Z,11.15
2023-04-13T06:53:09.093Z,11.27
2023-04-13T06:55:38.742Z,11.33
2023-04-13T06:58:08.147Z,11.41
2023-04-13T07:00:37.999Z,11.59
2023-04-13T07:03:07.840Z,11.80
2023-04-13T07:05:39.096Z,12.08
2023-04-13T07:08:13.210Z,12.56
2023-04-13T07:10:43.800Z,13.12
2023-04-13T07:13:22.436Z,13.72
2023-04-13T07:15:52.354Z,14.07
2023-04-13T07:18:21.680Z,14.40
2023-04-13T07:20:53.721Z,14.61
2023-04-13T07:23:25.035Z,14.66
2023-04-13T07:25:54.753Z,14.54
2023-04-13T07:28:27.490Z,14.37
2023-04-13T07:30:58.587Z,14.22
2023-04-13T07:33:28.330Z,14.14
2023-04-13T07:35:57.428Z,14.19
2023-04-13T07:38:28.508Z,14.17
2023-04-13T07:40:57.698Z,13.94
2023-04-13T07:43:29.983Z,13.83
2023-04-13T07:46:01.128Z,13.93
2023-04-13T07:48:30.763Z,14.06
2023-04-13T07:51:04.276Z,14.15
2023-04-13T07:53:37.862Z,14.22
2023-04-13T07:56:08.476Z,14.28
2023-04-13T07:58:41.994Z,14.37
2023-04-13T08:01:11.844Z,14.48
2023-04-13T08:03:41.480Z,14.62
2023-04-13T08:06:16.969Z,14.63
2023-04-13T08:08:47.556Z,14.57
2023-04-13T08:11:17.911Z,14.51
2023-04-13T08:13:47.979Z,14.55
2023-04-13T08:16:17.358Z,14.66
2023-04-13T08:18:47.410Z,14.72
2023-04-13T08:21:16.724Z,14.83
2023-04-13T08:23:50.072Z,15.03
2023-04-13T08:26:22.530Z,15.06
2023-04-13T08:28:53.201Z,15.18
2023-04-13T08:31:22.850Z,15.45
2023-04-13T08:34:02.250Z,15.75
2023-04-13T08:36:33.700Z,16.02
2023-04-13T08:39:10.503Z,16.29
2023-04-13T08:41:47.872Z,16.57
2023-04-13T08:44:19.253Z,16.83
2023-04-13T08:46:53.307Z,17.15
2023-04-13T08:49:29.508Z,17.53
2023-04-13T08:52:19.916Z,18.03
2023-04-13T08:54:54.686Z,18.42
2023-04-13T08:57:31.295Z,18.64
2023-04-13T09:00:01.678Z,18.65
2023-04-13T09:02:40.576Z,18.48
2023-04-13T09:05:18.151Z,18.25
2023-04-13T09:07:54.044Z,18.03
2023-04-13T09:10:26.908Z,17.95
2023-04-13T09:12:56.278Z,17.93
2023-04-13T09:15:25.896Z,17.95
2023-04-13T09:18:17.516Z,17.87
2023-04-13T09:20:59.124Z,17.69
2023-04-13T09:23:28.661Z,17.51
2023-04-13T09:26:27.935Z,17.39
2023-04-13T09:28:58.461Z,17.38
2023-04-13T09:31:28.583Z,17.47
2023-04-13T09:33:58.177Z,17.62
2023-04-13T09:36:29.108Z,17.74
2023-04-13T09:38:59.123Z,17.86
2023-04-13T09:41:37.823Z,18.15
2023-04-13T09:44:28.820Z,18.59
2023-04-13T09:47:09.783Z,19.11
2023-04-13T09:49:51.678Z,19.41
2023-04-13T09:52:27.383Z,19.46
2023-04-13T09:55:03.243Z,19.39
2023-04-13T09:57:36.389Z,19.32
2023-04-13T10:00:25.337Z,19.15
2023-04-13T10:03:05.799Z,18.88
2023-04-13T10:05:58.656Z,18.66
2023-04-13T10:08:39.308Z,18.36
2023-04-13T10:11:19.375Z,18.04
2023-04-13T10:14:02.015Z,17.87
2023-04-13T10:17:17.756Z,17.72
2023-04-13T10:19:55.601Z,17.55
2023-04-13T10:22:47.783Z,17.44
2023-04-13T10:25:33.301Z,17.40
2023-04-13T10:28:11.428Z,17.35
2023-04-13T10:30:54.327Z,17.32
2023-04-13T10:33:33.106Z,17.33
2023-04-13T10:36:10.974Z,17.36
2023-04-13T10:38:47.638Z,17.33
2023-04-13T10:41:27.356Z,17.22
2023-04-13T10:44:12.431Z,17.06
2023-04-13T10:46:54.061Z,16.95
2023-04-13T10:49:37.474Z,16.88
2023-04-13T10:52:24.449Z,16.88
2023-04-13T10:54:55.373Z,16.93
2023-04-13T10:57:25.586Z,16.91
2023-04-13T11:00:04.502Z,16.82
2023-04-13T11:02:47.235Z,16.78
2023-04-13T11:05:27.556Z,16.69
2023-04-13T11:08:02.624Z,16.59
2023-04-13T11:10:42.612Z,16.46
2023-04-13T11:13:15.917Z,16.40
2023-04-13T11:15:50.282Z,16.37
2023-04-13T11:18:35.103Z,16.37
2023-04-13T11:21:20.985Z,16.41
2023-04-13T11:24:12.466Z,16.45
2023-04-13T11:26:47.542Z,16.50
2023-04-13T11:29:25.459Z,16.57
2023-04-13T11:32:11.793Z,16.64
2023-04-13T11:34:44.305Z,16.66
2023-04-13T11:37:21.522Z,16.70
2023-04-13T11:39:59.804Z,16.69
2023-04-13T11:42:45.157Z,16.68
2023-04-13T11:45:31.757Z,16.66
2023-04-13T11:48:09.980Z,16.60
2023-04-13T11:50:43.810Z,16.58
2023-04-13T11:53:39.807Z,16.61
2023-04-13T11:56:10.912Z,16.59
2023-04-13T11:58:50.365Z,16.51
2023-04-13T12:01:26.976Z,16.40
2023-04-13T12:04:21.315Z,16.36
2023-04-13T12:07:03.995Z,16.35
2023-04-13T12:15:24.297Z,16.11
2023-04-13T12:18:15.864Z,15.98
2023-04-13T12:20:53.854Z,15.88
2023-04-13T12:23:28.286Z,15.80
2023-04-13T12:26:25.994Z,15.74
2023-04-13T12:28:58.009Z,15.64
2023-04-13T12:31:40.844Z,15.61
2023-04-13T12:34:15.357Z,15.64
2023-04-13T12:36:49.734Z,15.71
2023-04-13T12:39:30.633Z,15.76
2023-04-13T12:42:05.352Z,15.80
2023-04-13T12:44:40.270Z,15.83
2023-04-13T12:47:11.586Z,15.79
2023-04-13T12:49:41.365Z,15.75
2023-04-13T12:52:11.210Z,15.76
2023-04-13T12:54:44.700Z,15.72
2023-04-13T12:57:20.118Z,15.68
2023-04-13T12:59:57.370Z,15.69
2023-04-13T13:02:37.134Z,15.66
2023-04-13T13:05:09.892Z,15.57
2023-04-13T13:07:42.179Z,15.57
2023-04-13T13:10:25.861Z,15.61
2023-04-13T13:13:04.280Z,15.67
2023-04-13T13:15:37.193Z,15.70
2023-04-13T13:18:15.626Z,15.55
2023-04-13T13:20:49.878Z,15.50
2023-04-13T13:23:21.463Z,15.53
2023-04-13T13:26:17.389Z,15.58
2023-04-13T13:28:50.588Z,15.59
2023-04-13T13:31:23.675Z,15.55
2023-04-13T13:33:56.861Z,15.47
2023-04-13T13:36:29.309Z,15.43
2023-04-13T13:39:00.161Z,15.43
2023-04-13T13:41:32.747Z,15.41
2023-04-13T13:44:03.453Z,15.39
2023-04-13T13:46:33.802Z,15.34
2023-04-13T13:49:08.371Z,15.31
2023-04-13T13:52:03.324Z,15.24
2023-04-13T13:54:34.797Z,15.16
2023-04-13T13:57:06.571Z,15.15
2023-04-13T13:59:35.645Z,15.10
2023-04-13T14:02:04.991Z,14.88
2023-04-13T14:04:34.837Z,14.79
2023-04-13T14:07:06.720Z,14.74
2023-04-13T14:09:36.827Z,14.63
2023-04-13T14:12:15.626Z,14.57
2023-04-13T14:14:46.621Z,14.51
2023-04-13T14:17:19.496Z,14.46
2023-04-13T14:19:51.777Z,14.52
2023-04-13T14:22:24.472Z,14.57
2023-04-13T14:24:57.221Z,14.59
2023-04-13T14:27:29.367Z,14.57
2023-04-13T14:30:05.404Z,14.55
2023-04-13T14:32:35.221Z,14.55
2023-04-13T14:35:05.582Z,14.50
2023-04-13T14:37:41.002Z,14.43
2023-04-13T14:40:17.456Z,14.33
2023-04-13T14:42:55.070Z,14.15
2023-04-13T14:45:24.948Z,13.97
2023-04-13T14:47:59.606Z,13.86
2023-04-13T14:50:32.375Z,13.75
2023-04-13T14:53:11.507Z,13.66
2023-04-13T14:55:41.983Z,13.52
2023-04-13T14:58:16.134Z,13.42
2023-04-13T15:00:48.668Z,13.27
2023-04-13T15:03:27.443Z,13.16
2023-04-13T15:06:04.330Z,13.08
2023-04-13T15:08:36.568Z,12.98
2023-04-13T15:11:06.910Z,12.89
2023-04-13T15:13:39.065Z,12.79
2023-04-13T15:16:09.266Z,12.75
2023-04-13T15:18:41.889Z,12.80
2023-04-13T15:21:12.175Z,12.86
2023-04-13T15:23:48.055Z,12.90
2023-04-13T15:26:43.180Z,12.87
2023-04-13T15:29:17.358Z,12.77
2023-04-13T15:31:49.909Z,12.64
2023-04-13T15:34:21.607Z,12.52
2023-04-13T15:36:57.890Z,12.40
2023-04-13T15:39:28.853Z,12.35
2023-04-13T15:42:10.207Z,12.33
2023-04-13T15:44:44.908Z,12.31
2023-04-13T15:47:24.045Z,12.27
2023-04-13T15:50:08.050Z,12.17
2023-04-13T15:52:41.469Z,12.10
2023-04-13T15:55:19.093Z,12.01
2023-04-13T15:57:57.557Z,12.01
2023-04-13T16:00:32.361Z,12.06
2023-04-13T16:03:15.063Z,12.00
2023-04-13T16:05:50.220Z,11.95
2023-04-13T16:08:23.914Z,11.94
2023-04-13T16:11:14.550Z,11.94
2023-04-13T16:13:50.347Z,11.96
2023-04-13T16:16:44.600Z,11.96
2023-04-13T16:19:37.820Z,11.89
2023-04-13T16:22:12.313Z,11.82
2023-04-13T16:25:09.395Z,11.78
2023-04-13T16:27:55.694Z,11.69
2023-04-13T16:30:33.836Z,11.59
2023-04-13T16:33:09.662Z,11.52
2023-04-13T16:35:47.456Z,11.49
2023-04-13T16:38:22.382Z,11.49
2023-04-13T16:41:11.176Z,11.50
2023-04-13T16:43:52.917Z,11.46
2023-04-13T16:46:26.136Z,11.30
2023-04-13T16:48:59.541Z,11.26
2023-04-13T16:51:39.315Z,11.21
2023-04-13T16:54:22.754Z,11.14
2023-04-13T16:56:58.576Z,11.09
2023-04-13T16:59:31.272Z,11.03
2023-04-13T17:02:01.287Z,10.98
2023-04-13T17:04:33.590Z,10.95
2023-04-13T17:07:13.828Z,10.93
2023-04-13T17:09:58.046Z,10.91
2023-04-13T17:12:34.903Z,10.91
2023-04-13T17:15:11.132Z,10.92
2023-04-13T17:17:44.549Z,10.96
2023-04-13T17:20:21.556Z,10.98
2023-04-13T17:22:58.758Z,10.93
2023-04-13T17:25:43.046Z,10.88
2023-04-13T17:28:22.236Z,10.82
2023-04-13T17:30:56.060Z,10.79
2023-04-13T17:33:35.208Z,10.79
2023-04-13T17:36:22.332Z,10.75
2023-04-13T17:39:12.824Z,10.71
2023-04-13T17:42:03.099Z,10.66
2023-04-13T17:45:32.982Z,10.58
2023-04-13T17:48:53.324Z,10.51
2023-04-13T17:52:08.203Z,10.47
2023-04-13T17:55:31.722Z,10.41
2023-04-13T17:58:43.756Z,10.37
2023-04-13T18:01:32.112Z,10.32
2023-04-13T18:04:24.145Z,10.30
2023-04-13T18:07:12.680Z,10.28
2023-04-13T18:09:49.187Z,10.25
2023-04-13T18:12:33.320Z,10.23
2023-04-13T18:15:10.789Z,10.21
2023-04-13T18:19:13.725Z,10.20
2023-04-13T18:23:10.554Z,10.13
2023-04-13T18:25:58.333Z,10.08
2023-04-13T18:28:39.003Z,10.09
2023-04-13T18:31:17.134Z,10.10
2023-04-13T18:33:48.224Z,10.08
2023-04-13T18:36:42.934Z,10.07
2023-04-13T18:39:37.887Z,10.20
2023-04-13T18:42:12.530Z,10.12
2023-04-13T18:44:46.374Z,10.08
2023-04-13T18:47:22.733Z,10.06
2023-04-13T18:50:02.364Z,9.95
2023-04-13T18:52:46.729Z,9.92
2023-04-13T18:55:20.267Z,9.91
2023-04-13T18:58:03.715Z,9.91
2023-04-13T19:03:47.976Z,9.90
2023-04-13T19:06:32.408Z,9.89
2023-04-13T19:09:23.073Z,9.86
2023-04-13T19:15:24.418Z,9.86
2023-04-13T19:18:15.380Z,9.86
2023-04-13T19:21:03.908Z,9.86
2023-04-13T19:24:08.165Z,9.85
2023-04-13T19:27:03.848Z,9.83
2023-04-13T19:29:37.718Z,9.82
2023-04-13T19:32:17.730Z,9.84
2023-04-13T19:34:53.161Z,9.85
2023-04-13T19:37:27.001Z,9.83
2023-04-13T19:40:08.241Z,9.82
2023-04-13T19:45:31.848Z,9.85
2023-04-13T19:48:21.979Z,9.86
2023-04-13T19:51:15.277Z,9.83
2023-04-13T19:54:11.952Z,9.80
2023-04-13T19:56:43.773Z,9.79
2023-04-13T19:59:19.520Z,9.77
2023-04-13T20:02:01.133Z,9.80
2023-04-13T20:04:38.658Z,9.83
2023-04-13T20:07:15.024Z,9.85
2023-04-13T20:09:52.116Z,9.87
2023-04-13T20:12:26.989Z,9.89
2023-04-13T20:15:01.068Z,9.92
2023-04-13T20:17:53.685Z,9.96
2023-04-13T20:20:45.748Z,9.97
2023-04-13T20:23:33.669Z,10.00
2023-04-13T20:26:22.312Z,9.99
2023-04-13T20:29:01.689Z,10.00
2023-04-13T20:31:50.706Z,9.96
2023-04-13T20:34:37.967Z,9.95
2023-04-13T20:37:47.929Z,9.93
2023-04-13T20:40:33.985Z,9.95
2023-04-13T20:43:07.045Z,9.94
2023-04-13T20:45:52.712Z,9.95
2023-04-13T20:51:27.145Z,9.95
2023-04-13T20:54:26.343Z,9.90
2023-04-13T20:57:11.822Z,9.88
2023-04-13T20:59:45.241Z,9.87
2023-04-13T21:02:32.103Z,9.90
2023-04-13T21:05:08.443Z,9.89
2023-04-13T21:07:57.006Z,9.88
2023-04-13T21:10:35.882Z,9.88
2023-04-13T21:13:20.254Z,9.90
2023-04-13T21:15:59.057Z,9.90
2023-04-13T21:19:00.417Z,9.88
2023-04-13T21:21:43.027Z,9.86
2023-04-13T21:24:34.625Z,9.86
2023-04-13T21:27:18.674Z,9.85
2023-04-13T21:29:48.696Z,9.85
2023-04-13T21:32:34.080Z,9.87
2023-04-13T21:35:09.315Z,9.87
2023-04-13T21:37:57.230Z,9.87
2023-04-13T21:40:33.980Z,9.86
2023-04-13T21:43:13.669Z,9.86
2023-04-13T21:45:52.786Z,9.87
2023-04-13T21:48:33.261Z,9.88
2023-04-13T21:51:09.016Z,9.88
2023-04-13T21:53:42.824Z,9.89
2023-04-13T21:56:24.955Z,9.90
2023-04-13T21:58:58.310Z,9.91
2023-04-13T22:04:19.612Z,9.88
2023-04-13T22:06:53.768Z,9.89
2023-04-13T22:09:31.881Z,9.90
2023-04-13T22:12:09.686Z,9.89
2023-04-13T22:14:48.115Z,9.89
2023-04-13T22:17:30.643Z,9.89
2023-04-13T22:20:07.031Z,9.89
2023-04-13T22:22:41.924Z,9.87
2023-04-13T22:25:14.083Z,9.87
2023-04-13T22:27:46.927Z,9.88
2023-04-13T22:30:26.354Z,9.90
2023-04-13T22:33:01.879Z,9.92
2023-04-13T22:35:37.098Z,9.93
2023-04-13T22:38:10.252Z,9.93
2023-04-13T22:40:49.240Z,9.95
2023-04-13T22:43:18.808Z,9.94
2023-04-13T22:45:58.591Z,9.95
2023-04-13T22:48:42.102Z,9.93
2023-04-13T22:51:20.611Z,9.90
2023-04-13T22:53:56.560Z,9.88
2023-04-13T22:56:29.866Z,9.90
2023-04-13T22:59:04.018Z,9.94
2023-04-13T23:01:46.709Z,9.87
2023-04-13T23:04:19.961Z,9.87
2023-04-13T23:07:05.712Z,9.88
2023-04-13T23:09:38.897Z,9.90
2023-04-13T23:12:16.317Z,9.95
2023-04-13T23:14:48.080Z,9.98
2023-04-13T23:17:34.083Z,9.98
2023-04-13T23:20:07.369Z,10.00
2023-04-13T23:22:42.807Z,10.00
2023-04-13T23:25:20.305Z,10.00
2023-04-13T23:28:07.589Z,10.00
2023-04-13T23:30:42.469Z,10.00
2023-04-13T23:33:21.618Z,9.99
2023-04-13T23:36:03.889Z,9.98
2023-04-13T23:38:39.125Z,9.98
2023-04-13T23:41:11.468Z,9.97
2023-04-13T23:43:47.560Z,9.98
2023-04-13T23:46:23.936Z,9.97
2023-04-13T23:48:58.239Z,9.97
2023-04-13T23:51:44.595Z,9.96
2023-04-13T23:54:25.817Z,9.96
2023-04-13T23:57:13.854Z,9.94
